sensor_id;sensor_type;location;lat;lon;timestamp;P1;durP1;ratioP1;P2;durP2;ratioP2
10894;SDS011;5500;49.886;8.074;2023-04-16T00:00:50;12.37;;;9.67;;
10894;SDS011;5500;49.886;8.074;2023-04-16T00:03:19;11.53;;;10.33;;
10894;SDS011;5500;49.886;8.074;2023-04-16T00:05:47;10.67;;;9.67;;
10894;SDS011;5500;49.886;8.074;2023-04-16T00:08:14;12.67;;;11.03;;
10894;SDS011;5500;49.886;8.074;2023-04-16T00:10:43;11.67;;;10.33;;
10894;SDS011;5500;49.886;8.074;2023-04-16T00:13:11;11.60;;;10.13;;
10894;SDS011;5500;49.886;8.074;2023-04-16T00:15:39;11.23;;;10.07;;
10894;SDS011;5500;49.886;8.074;2023-04-16T00:18:06;11.47;;;9.97;;
10894;SDS011;5500;49.886;8.074;2023-04-16T00:20:34;12.27;;;10.93;;
10894;SDS011;5500;49.886;8.074;2023-04-16T00:23:02;12.13;;;10.67;;
10894;SDS011;5500;49.886;8.074;2023-04-16T00:25:29;11.83;;;10.27;;
10894;SDS011;5500;49.886;8.074;2023-04-16T00:27:58;14.90;;;11.23;;
10894;SDS011;5500;49.886;8.074;2023-04-16T00:30:26;12.73;;;11.43;;
10894;SDS011;5500;49.886;8.074;2023-04-16T00:32:54;12.30;;;11.10;;
10894;SDS011;5500;49.886;8.074;2023-04-16T00:35:21;13.20;;;11.80;;
10894;SDS011;5500;49.886;8.074;2023-04-16T00:37:49;12.33;;;11.03;;
10894;SDS011;5500;49.886;8.074;2023-04-16T00:40:17;14.37;;;11.97;;
10894;SDS011;5500;49.886;8.074;2023-04-16T00:42:45;14.20;;;12.20;;
10894;SDS011;5500;49.886;8.074;2023-04-16T00:45:14;13.07;;;11.73;;
10894;SDS011;5500;49.886;8.074;2023-04-16T00:47:42;12.63;;;11.33;;
10894;SDS011;5500;49.886;8.074;2023-04-16T00:50:10;12.13;;;10.80;;
10894;SDS011;5500;49.886;8.074;2023-04-16T00:52:38;13.00;;;11.63;;
10894;SDS011;5500;49.886;8.074;2023-04-16T00:55:06;13.97;;;12.00;;
10894;SDS011;5500;49.886;8.074;2023-04-16T00:57:38;12.70;;;11.43;;
10894;SDS011;5500;49.886;8.074;2023-04-16T01:00:06;13.60;;;11.93;;
10894;SDS011;5500;49.886;8.074;2023-04-16T01:02:36;15.13;;;12.07;;
10894;SDS011;5500;49.886;8.074;2023-04-16T01:05:04;13.90;;;12.23;;
10894;SDS011;5500;49.886;8.074;2023-04-16T01:07:32;13.70;;;11.53;;
10894;SDS011;5500;49.886;8.074;2023-04-16T01:10:00;12.87;;;11.57;;
10894;SDS011;5500;49.886;8.074;2023-04-16T01:12:28;12.73;;;11.53;;
10894;SDS011;5500;49.886;8.074;2023-04-16T01:14:57;13.73;;;11.77;;
10894;SDS011;5500;49.886;8.074;2023-04-16T01:17:25;15.40;;;11.70;;
10894;SDS011;5500;49.886;8.074;2023-04-16T01:19:58;13.30;;;11.67;;
10894;SDS011;5500;49.886;8.074;2023-04-16T01:22:27;14.20;;;11.73;;
10894;SDS011;5500;49.886;8.074;2023-04-16T01:24:55;15.57;;;13.50;;
10894;SDS011;5500;49.886;8.074;2023-04-16T01:27:22;14.13;;;12.63;;
10894;SDS011;5500;49.886;8.074;2023-04-16T01:29:51;14.87;;;13.27;;
10894;SDS011;5500;49.886;8.074;2023-04-16T01:32:18;15.20;;;13.60;;
10894;SDS011;5500;49.886;8.074;2023-04-16T01:34:46;16.23;;;13.50;;
10894;SDS011;5500;49.886;8.074;2023-04-16T01:37:14;15.03;;;13.20;;
10894;SDS011;5500;49.886;8.074;2023-04-16T01:39:43;15.23;;;13.33;;
10894;SDS011;5500;49.886;8.074;2023-04-16T01:42:11;15.80;;;14.07;;
10894;SDS011;5500;49.886;8.074;2023-04-16T01:44:38;15.07;;;13.47;;
10894;SDS011;5500;49.886;8.074;2023-04-16T01:47:06;15.60;;;13.97;;
10894;SDS011;5500;49.886;8.074;2023-04-16T01:49:34;16.23;;;14.57;;
10894;SDS011;5500;49.886;8.074;2023-04-16T01:52:02;16.07;;;13.90;;
10894;SDS011;5500;49.886;8.074;2023-04-16T01:54:29;17.43;;;15.17;;
10894;SDS011;5500;49.886;8.074;2023-04-16T01:56:58;17.10;;;14.40;;
10894;SDS011;5500;49.886;8.074;2023-04-16T01:59:26;17.03;;;14.50;;
10894;SDS011;5500;49.886;8.074;2023-04-16T02:01:54;15.80;;;13.07;;
10894;SDS011;5500;49.886;8.074;2023-04-16T02:04:22;14.47;;;12.97;;
10894;SDS011;5500;49.886;8.074;2023-04-16T02:06:49;15.63;;;13.63;;
10894;SDS011;5500;49.886;8.074;2023-04-16T02:09:17;17.37;;;13.93;;
10894;SDS011;5500;49.886;8.074;2023-04-16T02:11:45;17.37;;;13.33;;
10894;SDS011;5500;49.886;8.074;2023-04-16T02:14:13;15.57;;;13.87;;
10894;SDS011;5500;49.886;8.074;2023-04-16T02:16:41;15.33;;;13.47;;
10894;SDS011;5500;49.886;8.074;2023-04-16T02:19:09;16.13;;;13.50;;
10894;SDS011;5500;49.886;8.074;2023-04-16T02:21:36;16.93;;;14.13;;
10894;SDS011;5500;49.886;8.074;2023-04-16T02:24:04;17.50;;;14.33;;
10894;SDS011;5500;49.886;8.074;2023-04-16T02:26:32;16.80;;;13.57;;
10894;SDS011;5500;49.886;8.074;2023-04-16T02:29:00;15.87;;;13.87;;
10894;SDS011;5500;49.886;8.074;2023-04-16T02:31:29;18.53;;;14.93;;
10894;SDS011;5500;49.886;8.074;2023-04-16T02:33:57;16.73;;;14.20;;
10894;SDS011;5500;49.886;8.074;2023-04-16T02:36:24;19.10;;;15.60;;
10894;SDS011;5500;49.886;8.074;2023-04-16T02:38:52;18.20;;;15.27;;
10894;SDS011;5500;49.886;8.074;2023-04-16T02:41:20;18.03;;;14.97;;
10894;SDS011;5500;49.886;8.074;2023-04-16T02:43:48;19.57;;;15.67;;
10894;SDS011;5500;49.886;8.074;2023-04-16T02:46:15;19.27;;;15.63;;
10894;SDS011;5500;49.886;8.074;2023-04-16T02:48:44;18.77;;;15.43;;
10894;SDS011;5500;49.886;8.074;2023-04-16T02:51:12;20.77;;;15.00;;
10894;SDS011;5500;49.886;8.074;2023-04-16T02:53:40;20.50;;;15.33;;
10894;SDS011;5500;49.886;8.074;2023-04-16T02:56:11;17.27;;;14.93;;
10894;SDS011;5500;49.886;8.074;2023-04-16T02:58:38;18.10;;;13.50;;
10894;SDS011;5500;49.886;8.074;2023-04-16T03:01:06;14.90;;;13.27;;
10894;SDS011;5500;49.886;8.074;2023-04-16T03:03:34;18.33;;;13.53;;
10894;SDS011;5500;49.886;8.074;2023-04-16T03:06:03;14.27;;;11.80;;
10894;SDS011;5500;49.886;8.074;2023-04-16T03:08:30;14.00;;;11.63;;
10894;SDS011;5500;49.886;8.074;2023-04-16T03:10:58;13.47;;;12.03;;
10894;SDS011;5500;49.886;8.074;2023-04-16T03:13:25;12.47;;;11.17;;
10894;SDS011;5500;49.886;8.074;2023-04-16T03:15:53;11.90;;;10.70;;
10894;SDS011;5500;49.886;8.074;2023-04-16T03:18:21;14.07;;;10.97;;
10894;SDS011;5500;49.886;8.074;2023-04-16T03:20:50;14.80;;;11.13;;
10894;SDS011;5500;49.886;8.074;2023-04-16T03:23:19;13.97;;;11.13;;
10894;SDS011;5500;49.886;8.074;2023-04-16T03:25:47;11.40;;;9.77;;
10894;SDS011;5500;49.886;8.074;2023-04-16T03:28:14;11.20;;;9.90;;
10894;SDS011;5500;49.886;8.074;2023-04-16T03:30:42;13.53;;;9.77;;
10894;SDS011;5500;49.886;8.074;2023-04-16T03:33:09;10.93;;;9.43;;
10894;SDS011;5500;49.886;8.074;2023-04-16T03:35:37;11.40;;;8.97;;
10894;SDS011;5500;49.886;8.074;2023-04-16T03:38:05;10.13;;;8.30;;
10894;SDS011;5500;49.886;8.074;2023-04-16T03:40:34;9.77;;;8.73;;
10894;SDS011;5500;49.886;8.074;2023-04-16T03:43:01;8.80;;;7.93;;
10894;SDS011;5500;49.886;8.074;2023-04-16T03:45:29;10.17;;;8.57;;
10894;SDS011;5500;49.886;8.074;2023-04-16T03:47:57;9.53;;;8.53;;
10894;SDS011;5500;49.886;8.074;2023-04-16T03:50:24;9.20;;;8.23;;
10894;SDS011;5500;49.886;8.074;2023-04-16T03:52:52;9.23;;;8.33;;
10894;SDS011;5500;49.886;8.074;2023-04-16T03:55:20;9.93;;;8.87;;
10894;SDS011;5500;49.886;8.074;2023-04-16T03:57:49;9.80;;;8.60;;
10894;SDS011;5500;49.886;8.074;2023-04-16T04:00:16;9.40;;;8.27;;
10894;SDS011;5500;49.886;8.074;2023-04-16T04:02:44;10.43;;;9.17;;
10894;SDS011;5500;49.886;8.074;2023-04-16T04:05:12;11.43;;;8.53;;
10894;SDS011;5500;49.886;8.074;2023-04-16T04:07:40;10.23;;;9.13;;
10894;SDS011;5500;49.886;8.074;2023-04-16T04:10:08;10.30;;;8.67;;
10894;SDS011;5500;49.886;8.074;2023-04-16T04:12:36;9.73;;;8.63;;
10894;SDS011;5500;49.886;8.074;2023-04-16T04:15:05;12.30;;;9.80;;
10894;SDS011;5500;49.886;8.074;2023-04-16T04:17:34;11.97;;;9.60;;
10894;SDS011;5500;49.886;8.074;2023-04-16T04:20:01;10.60;;;9.43;;
10894;SDS011;5500;49.886;8.074;2023-04-16T04:22:29;10.40;;;8.90;;
10894;SDS011;5500;49.886;8.074;2023-04-16T04:24:57;12.27;;;10.07;;
10894;SDS011;5500;49.886;8.074;2023-04-16T04:27:24;11.53;;;9.90;;
10894;SDS011;5500;49.886;8.074;2023-04-16T04:29:52;13.43;;;9.50;;
10894;SDS011;5500;49.886;8.074;2023-04-16T04:32:21;10.47;;;9.43;;
10894;SDS011;5500;49.886;8.074;2023-04-16T04:34:48;11.90;;;9.87;;
10894;SDS011;5500;49.886;8.074;2023-04-16T04:37:16;12.77;;;9.87;;
10894;SDS011;5500;49.886;8.074;2023-04-16T04:39:44;14.17;;;10.17;;
10894;SDS011;5500;49.886;8.074;2023-04-16T04:42:11;12.33;;;10.27;;
10894;SDS011;5500;49.886;8.074;2023-04-16T04:44:39;12.33;;;9.67;;
10894;SDS011;5500;49.886;8.074;2023-04-16T04:47:07;12.77;;;9.60;;
10894;SDS011;5500;49.886;8.074;2023-04-16T04:49:35;13.70;;;11.17;;
10894;SDS011;5500;49.886;8.074;2023-04-16T04:52:03;13.83;;;10.90;;
10894;SDS011;5500;49.886;8.074;2023-04-16T04:54:31;13.60;;;10.97;;
10894;SDS011;5500;49.886;8.074;2023-04-16T04:56:59;16.30;;;12.37;;
10894;SDS011;5500;49.886;8.074;2023-04-16T04:59:27;16.20;;;12.47;;
10894;SDS011;5500;49.886;8.074;2023-04-16T05:01:54;15.93;;;12.80;;
10894;SDS011;5500;49.886;8.074;2023-04-16T05:04:22;16.93;;;13.37;;
10894;SDS011;5500;49.886;8.074;2023-04-16T05:06:51;18.57;;;13.67;;
10894;SDS011;5500;49.886;8.074;2023-04-16T05:09:18;15.50;;;12.60;;
10894;SDS011;5500;49.886;8.074;2023-04-16T05:11:48;16.93;;;13.33;;
10894;SDS011;5500;49.886;8.074;2023-04-16T05:14:15;17.07;;;13.47;;
10894;SDS011;5500;49.886;8.074;2023-04-16T05:16:43;18.67;;;14.20;;
10894;SDS011;5500;49.886;8.074;2023-04-16T05:19:11;17.57;;;13.40;;
10894;SDS011;5500;49.886;8.074;2023-04-16T05:21:38;16.43;;;13.23;;
10894;SDS011;5500;49.886;8.074;2023-04-16T05:24:07;19.13;;;14.33;;
10894;SDS011;5500;49.886;8.074;2023-04-16T05:26:35;19.50;;;14.50;;
10894;SDS011;5500;49.886;8.074;2023-04-16T05:29:03;19.33;;;14.87;;
10894;SDS011;5500;49.886;8.074;2023-04-16T05:31:31;19.63;;;14.33;;
10894;SDS011;5500;49.886;8.074;2023-04-16T05:33:58;17.27;;;13.90;;
10894;SDS011;5500;49.886;8.074;2023-04-16T05:36:26;17.40;;;13.77;;
10894;SDS011;5500;49.886;8.074;2023-04-16T05:38:54;18.20;;;14.07;;
10894;SDS011;5500;49.886;8.074;2023-04-16T05:41:23;18.60;;;13.70;;
10894;SDS011;5500;49.886;8.074;2023-04-16T05:43:50;18.20;;;14.40;;
10894;SDS011;5500;49.886;8.074;2023-04-16T05:46:18;19.90;;;15.60;;
10894;SDS011;5500;49.886;8.074;2023-04-16T05:48:46;21.33;;;14.90;;
10894;SDS011;5500;49.886;8.074;2023-04-16T05:51:13;18.97;;;14.50;;
10894;SDS011;5500;49.886;8.074;2023-04-16T05:53:41;16.33;;;13.77;;
10894;SDS011;5500;49.886;8.074;2023-04-16T05:56:09;17.80;;;14.07;;
10894;SDS011;5500;49.886;8.074;2023-04-16T05:58:37;18.20;;;14.23;;
10894;SDS011;5500;49.886;8.074;2023-04-16T06:01:05;18.13;;;13.47;;
10894;SDS011;5500;49.886;8.074;2023-04-16T06:03:33;15.40;;;13.37;;
10894;SDS011;5500;49.886;8.074;2023-04-16T06:06:01;18.60;;;13.47;;
10894;SDS011;5500;49.886;8.074;2023-04-16T06:08:28;17.03;;;12.57;;
10894;SDS011;5500;49.886;8.074;2023-04-16T06:10:56;16.77;;;12.87;;
10894;SDS011;5500;49.886;8.074;2023-04-16T06:13:24;17.50;;;12.80;;
10894;SDS011;5500;49.886;8.074;2023-04-16T06:15:53;16.50;;;12.17;;
10894;SDS011;5500;49.886;8.074;2023-04-16T06:18:21;15.97;;;12.37;;
10894;SDS011;5500;49.886;8.074;2023-04-16T06:20:48;15.67;;;11.57;;
10894;SDS011;5500;49.886;8.074;2023-04-16T06:23:16;14.53;;;11.30;;
10894;SDS011;5500;49.886;8.074;2023-04-16T06:25:43;15.90;;;11.83;;
10894;SDS011;5500;49.886;8.074;2023-04-16T06:28:11;13.60;;;10.60;;
10894;SDS011;5500;49.886;8.074;2023-04-16T06:30:39;13.63;;;10.90;;
10894;SDS011;5500;49.886;8.074;2023-04-16T06:33:11;14.33;;;11.03;;
10894;SDS011;5500;49.886;8.074;2023-04-16T06:35:38;13.90;;;11.20;;
10894;SDS011;5500;49.886;8.074;2023-04-16T06:38:06;16.87;;;11.17;;
10894;SDS011;5500;49.886;8.074;2023-04-16T06:40:34;13.20;;;10.67;;
10894;SDS011;5500;49.886;8.074;2023-04-16T06:43:02;17.67;;;12.00;;
10894;SDS011;5500;49.886;8.074;2023-04-16T06:45:30;15.17;;;12.00;;
10894;SDS011;5500;49.886;8.074;2023-04-16T06:47:57;16.87;;;11.43;;
10894;SDS011;5500;49.886;8.074;2023-04-16T06:50:28;13.07;;;11.47;;
10894;SDS011;5500;49.886;8.074;2023-04-16T06:52:55;17.83;;;12.43;;
10894;SDS011;5500;49.886;8.074;2023-04-16T06:55:23;17.30;;;12.40;;
10894;SDS011;5500;49.886;8.074;2023-04-16T06:57:51;16.63;;;11.40;;
10894;SDS011;5500;49.886;8.074;2023-04-16T07:00:18;14.90;;;11.67;;
10894;SDS011;5500;49.886;8.074;2023-04-16T07:02:46;14.40;;;11.40;;
10894;SDS011;5500;49.886;8.074;2023-04-16T07:05:14;16.80;;;13.27;;
10894;SDS011;5500;49.886;8.074;2023-04-16T07:07:43;17.20;;;13.30;;
10894;SDS011;5500;49.886;8.074;2023-04-16T07:10:11;16.67;;;13.27;;
10894;SDS011;5500;49.886;8.074;2023-04-16T07:12:38;17.07;;;12.47;;
10894;SDS011;5500;49.886;8.074;2023-04-16T07:15:06;16.13;;;11.53;;
10894;SDS011;5500;49.886;8.074;2023-04-16T07:17:35;16.30;;;12.83;;
10894;SDS011;5500;49.886;8.074;2023-04-16T07:20:03;15.83;;;12.60;;
10894;SDS011;5500;49.886;8.074;2023-04-16T07:22:31;16.30;;;12.37;;
10894;SDS011;5500;49.886;8.074;2023-04-16T07:25:00;14.67;;;11.27;;
10894;SDS011;5500;49.886;8.074;2023-04-16T07:27:27;16.20;;;11.93;;
10894;SDS011;5500;49.886;8.074;2023-04-16T07:29:55;16.10;;;12.87;;
10894;SDS011;5500;49.886;8.074;2023-04-16T07:32:22;14.20;;;11.17;;
10894;SDS011;5500;49.886;8.074;2023-04-16T07:34:50;17.13;;;11.80;;
10894;SDS011;5500;49.886;8.074;2023-04-16T07:37:18;15.50;;;11.03;;
10894;SDS011;5500;49.886;8.074;2023-04-16T07:39:46;16.90;;;11.67;;
10894;SDS011;5500;49.886;8.074;2023-04-16T07:42:15;15.67;;;11.67;;
10894;SDS011;5500;49.886;8.074;2023-04-16T07:44:42;14.03;;;11.23;;
10894;SDS011;5500;49.886;8.074;2023-04-16T07:47:10;15.17;;;11.77;;
10894;SDS011;5500;49.886;8.074;2023-04-16T07:49:38;15.63;;;12.33;;
10894;SDS011;5500;49.886;8.074;2023-04-16T07:52:05;14.70;;;11.10;;
10894;SDS011;5500;49.886;8.074;2023-04-16T07:54:33;15.33;;;12.47;;
10894;SDS011;5500;49.886;8.074;2023-04-16T07:57:01;15.40;;;11.40;;
10894;SDS011;5500;49.886;8.074;2023-04-16T07:59:30;14.77;;;11.20;;
10894;SDS011;5500;49.886;8.074;2023-04-16T08:01:57;16.23;;;11.30;;
10894;SDS011;5500;49.886;8.074;2023-04-16T08:04:25;14.73;;;11.43;;
10894;SDS011;5500;49.886;8.074;2023-04-16T08:06:53;14.37;;;11.00;;
10894;SDS011;5500;49.886;8.074;2023-04-16T08:09:21;14.57;;;11.53;;
10894;SDS011;5500;49.886;8.074;2023-04-16T08:11:50;19.47;;;12.07;;
10894;SDS011;5500;49.886;8.074;2023-04-16T08:14:17;17.50;;;11.73;;
10894;SDS011;5500;49.886;8.074;2023-04-16T08:16:46;17.20;;;12.27;;
10894;SDS011;5500;49.886;8.074;2023-04-16T08:19:14;15.63;;;11.37;;
10894;SDS011;5500;49.886;8.074;2023-04-16T08:21:42;16.97;;;12.17;;
10894;SDS011;5500;49.886;8.074;2023-04-16T08:24:09;15.50;;;12.10;;
10894;SDS011;5500;49.886;8.074;2023-04-16T08:26:37;14.93;;;11.67;;
10894;SDS011;5500;49.886;8.074;2023-04-16T08:29:05;15.73;;;12.33;;
10894;SDS011;5500;49.886;8.074;2023-04-16T08:31:33;14.40;;;11.63;;
10894;SDS011;5500;49.886;8.074;2023-04-16T08:34:02;17.33;;;12.50;;
10894;SDS011;5500;49.886;8.074;2023-04-16T08:36:30;15.07;;;10.93;;
10894;SDS011;5500;49.886;8.074;2023-04-16T08:38:57;15.33;;;12.50;;
10894;SDS011;5500;49.886;8.074;2023-04-16T08:41:25;16.77;;;12.20;;
10894;SDS011;5500;49.886;8.074;2023-04-16T08:43:54;16.23;;;12.30;;
10894;SDS011;5500;49.886;8.074;2023-04-16T08:46:22;16.97;;;12.53;;
10894;SDS011;5500;49.886;8.074;2023-04-16T08:48:52;17.23;;;12.60;;
10894;SDS011;5500;49.886;8.074;2023-04-16T08:51:22;14.20;;;11.30;;
10894;SDS011;5500;49.886;8.074;2023-04-16T08:53:51;18.40;;;13.60;;
10894;SDS011;5500;49.886;8.074;2023-04-16T08:56:20;16.57;;;12.60;;
10894;SDS011;5500;49.886;8.074;2023-04-16T08:58:49;18.43;;;13.43;;
10894;SDS011;5500;49.886;8.074;2023-04-16T09:01:17;17.50;;;13.40;;
10894;SDS011;5500;49.886;8.074;2023-04-16T09:03:45;18.87;;;13.87;;
10894;SDS011;5500;49.886;8.074;2023-04-16T09:06:14;18.03;;;14.50;;
10894;SDS011;5500;49.886;8.074;2023-04-16T09:08:44;17.50;;;14.07;;
10894;SDS011;5500;49.886;8.074;2023-04-16T09:11:12;20.50;;;14.17;;
10894;SDS011;5500;49.886;8.074;2023-04-16T09:13:40;19.37;;;14.27;;
10894;SDS011;5500;49.886;8.074;2023-04-16T09:16:07;17.37;;;13.53;;
10894;SDS011;5500;49.886;8.074;2023-04-16T09:18:36;18.60;;;13.90;;
10894;SDS011;5500;49.886;8.074;2023-04-16T09:21:03;18.43;;;14.37;;
10894;SDS011;5500;49.886;8.074;2023-04-16T09:23:32;17.97;;;13.57;;
10894;SDS011;5500;49.886;8.074;2023-04-16T09:26:03;19.37;;;14.73;;
10894;SDS011;5500;49.886;8.074;2023-04-16T09:28:37;20.20;;;15.43;;
10894;SDS011;5500;49.886;8.074;2023-04-16T09:31:09;18.30;;;14.77;;
10894;SDS011;5500;49.886;8.074;2023-04-16T09:33:37;18.80;;;14.07;;
10894;SDS011;5500;49.886;8.074;2023-04-16T09:36:05;21.47;;;15.03;;
10894;SDS011;5500;49.886;8.074;2023-04-16T09:38:47;19.87;;;14.70;;
10894;SDS011;5500;49.886;8.074;2023-04-16T09:41:16;21.57;;;15.07;;
10894;SDS011;5500;49.886;8.074;2023-04-16T09:43:53;22.47;;;15.30;;
10894;SDS011;5500;49.886;8.074;2023-04-16T09:46:23;18.20;;;14.93;;
10894;SDS011;5500;49.886;8.074;2023-04-16T09:48:51;18.63;;;14.43;;
10894;SDS011;5500;49.886;8.074;2023-04-16T09:51:19;20.87;;;15.73;;
10894;SDS011;5500;49.886;8.074;2023-04-16T09:53:46;24.03;;;15.97;;
10894;SDS011;5500;49.886;8.074;2023-04-16T09:56:19;20.97;;;15.50;;
10894;SDS011;5500;49.886;8.074;2023-04-16T09:58:49;20.37;;;15.50;;
10894;SDS011;5500;49.886;8.074;2023-04-16T10:01:18;21.17;;;15.50;;
10894;SDS011;5500;49.886;8.074;2023-04-16T10:03:47;20.47;;;15.23;;
10894;SDS011;5500;49.886;8.074;2023-04-16T10:06:17;18.83;;;15.10;;
10894;SDS011;5500;49.886;8.074;2023-04-16T10:08:46;23.00;;;15.70;;
10894;SDS011;5500;49.886;8.074;2023-04-16T10:11:15;19.93;;;15.13;;
10894;SDS011;5500;49.886;8.074;2023-04-16T10:13:45;20.10;;;14.57;;
10894;SDS011;5500;49.886;8.074;2023-04-16T10:16:12;18.87;;;14.60;;
10894;SDS011;5500;49.886;8.074;2023-04-16T10:18:41;21.93;;;15.67;;
10894;SDS011;5500;49.886;8.074;2023-04-16T10:21:09;18.87;;;14.93;;
10894;SDS011;5500;49.886;8.074;2023-04-16T10:23:38;21.87;;;14.40;;
10894;SDS011;5500;49.886;8.074;2023-04-16T10:26:06;19.60;;;14.97;;
10894;SDS011;5500;49.886;8.074;2023-04-16T10:28:34;17.60;;;14.53;;
10894;SDS011;5500;49.886;8.074;2023-04-16T10:31:04;19.30;;;14.57;;
10894;SDS011;5500;49.886;8.074;2023-04-16T10:33:34;19.73;;;15.03;;
10894;SDS011;5500;49.886;8.074;2023-04-16T10:36:06;19.80;;;15.00;;
10894;SDS011;5500;49.886;8.074;2023-04-16T10:38:37;21.70;;;15.67;;
10894;SDS011;5500;49.886;8.074;2023-04-16T10:41:06;17.23;;;13.43;;
10894;SDS011;5500;49.886;8.074;2023-04-16T10:43:38;16.90;;;13.70;;
10894;SDS011;5500;49.886;8.074;2023-04-16T10:46:20;18.30;;;13.37;;
10894;SDS011;5500;49.886;8.074;2023-04-16T10:48:51;17.93;;;13.47;;
10894;SDS011;5500;49.886;8.074;2023-04-16T10:51:23;16.10;;;12.83;;
10894;SDS011;5500;49.886;8.074;2023-04-16T10:53:53;17.43;;;13.53;;
10894;SDS011;5500;49.886;8.074;2023-04-16T10:56:22;19.27;;;13.93;;
10894;SDS011;5500;49.886;8.074;2023-04-16T10:58:51;15.70;;;13.00;;
10894;SDS011;5500;49.886;8.074;2023-04-16T11:01:25;17.40;;;13.20;;
10894;SDS011;5500;49.886;8.074;2023-04-16T11:03:57;17.37;;;13.03;;
10894;SDS011;5500;49.886;8.074;2023-04-16T11:06:26;18.40;;;13.53;;
10894;SDS011;5500;49.886;8.074;2023-04-16T11:08:54;17.30;;;13.33;;
10894;SDS011;5500;49.886;8.074;2023-04-16T11:11:22;18.63;;;13.83;;
10894;SDS011;5500;49.886;8.074;2023-04-16T11:13:53;17.67;;;13.57;;
10894;SDS011;5500;49.886;8.074;2023-04-16T11:16:23;17.73;;;13.17;;
10894;SDS011;5500;49.886;8.074;2023-04-16T11:18:51;19.80;;;13.33;;
10894;SDS011;5500;49.886;8.074;2023-04-16T11:21:22;18.87;;;13.63;;
10894;SDS011;5500;49.886;8.074;2023-04-16T11:23:50;16.93;;;13.77;;
10894;SDS011;5500;49.886;8.074;2023-04-16T11:26:19;18.03;;;14.13;;
10894;SDS011;5500;49.886;8.074;2023-04-16T11:28:51;18.47;;;14.10;;
10894;SDS011;5500;49.886;8.074;2023-04-16T11:31:20;20.10;;;14.73;;
10894;SDS011;5500;49.886;8.074;2023-04-16T11:33:50;17.77;;;14.30;;
10894;SDS011;5500;49.886;8.074;2023-04-16T11:36:17;20.37;;;14.93;;
10894;SDS011;5500;49.886;8.074;2023-04-16T11:38:45;20.03;;;15.23;;
10894;SDS011;5500;49.886;8.074;2023-04-16T11:41:17;14.80;;;13.13;;
10894;SDS011;5500;49.886;8.074;2023-04-16T11:43:46;18.37;;;14.27;;
10894;SDS011;5500;49.886;8.074;2023-04-16T11:46:14;18.67;;;14.57;;
10894;SDS011;5500;49.886;8.074;2023-04-16T11:48:54;21.07;;;15.90;;
10894;SDS011;5500;49.886;8.074;2023-04-16T11:51:22;20.37;;;15.33;;
10894;SDS011;5500;49.886;8.074;2023-04-16T11:53:50;20.33;;;15.43;;
10894;SDS011;5500;49.886;8.074;2023-04-16T11:56:25;20.13;;;16.00;;
10894;SDS011;5500;49.886;8.074;2023-04-16T11:59:09;21.10;;;15.53;;
10894;SDS011;5500;49.886;8.074;2023-04-16T12:01:38;18.37;;;15.73;;
10894;SDS011;5500;49.886;8.074;2023-04-16T12:04:08;19.27;;;14.67;;
10894;SDS011;5500;49.886;8.074;2023-04-16T12:06:36;21.90;;;15.90;;
10894;SDS011;5500;49.886;8.074;2023-04-16T12:09:22;21.00;;;15.37;;
10894;SDS011;5500;49.886;8.074;2023-04-16T12:11:50;20.60;;;15.13;;
10894;SDS011;5500;49.886;8.074;2023-04-16T12:14:18;21.37;;;15.70;;
10894;SDS011;5500;49.886;8.074;2023-04-16T12:16:46;18.97;;;14.80;;
10894;SDS011;5500;49.886;8.074;2023-04-16T12:19:16;17.67;;;14.63;;
10894;SDS011;5500;49.886;8.074;2023-04-16T12:21:44;19.53;;;14.53;;
10894;SDS011;5500;49.886;8.074;2023-04-16T12:24:13;18.63;;;14.70;;
10894;SDS011;5500;49.886;8.074;2023-04-16T12:26:42;18.60;;;14.37;;
10894;SDS011;5500;49.886;8.074;2023-04-16T12:29:13;20.50;;;15.63;;
10894;SDS011;5500;49.886;8.074;2023-04-16T12:31:45;20.83;;;15.97;;
10894;SDS011;5500;49.886;8.074;2023-04-16T12:34:12;20.90;;;15.37;;
10894;SDS011;5500;49.886;8.074;2023-04-16T12:36:43;20.23;;;15.03;;
10894;SDS011;5500;49.886;8.074;2023-04-16T12:39:12;17.97;;;14.33;;
10894;SDS011;5500;49.886;8.074;2023-04-16T12:41:41;19.10;;;15.67;;
10894;SDS011;5500;49.886;8.074;2023-04-16T12:44:10;18.03;;;14.83;;
10894;SDS011;5500;49.886;8.074;2023-04-16T12:46:39;17.67;;;14.73;;
10894;SDS011;5500;49.886;8.074;2023-04-16T12:49:07;17.17;;;13.93;;
10894;SDS011;5500;49.886;8.074;2023-04-16T12:51:36;19.80;;;15.03;;
10894;SDS011;5500;49.886;8.074;2023-04-16T12:54:06;17.00;;;13.77;;
10894;SDS011;5500;49.886;8.074;2023-04-16T12:56:33;14.77;;;13.03;;
10894;SDS011;5500;49.886;8.074;2023-04-16T12:59:01;16.00;;;13.13;;
10894;SDS011;5500;49.886;8.074;2023-04-16T13:01:30;16.87;;;13.17;;
10894;SDS011;5500;49.886;8.074;2023-04-16T13:03:57;16.00;;;13.10;;
10894;SDS011;5500;49.886;8.074;2023-04-16T13:06:25;17.07;;;13.93;;
10894;SDS011;5500;49.886;8.074;2023-04-16T13:08:53;16.90;;;12.83;;
10894;SDS011;5500;49.886;8.074;2023-04-16T13:11:22;14.43;;;12.27;;
10894;SDS011;5500;49.886;8.074;2023-04-16T13:13:50;19.27;;;11.97;;
10894;SDS011;5500;49.886;8.074;2023-04-16T13:16:17;15.37;;;12.97;;
10894;SDS011;5500;49.886;8.074;2023-04-16T13:18:45;15.87;;;13.03;;
10894;SDS011;5500;49.886;8.074;2023-04-16T13:21:13;16.73;;;14.37;;
10894;SDS011;5500;49.886;8.074;2023-04-16T13:23:41;19.73;;;14.33;;
10894;SDS011;5500;49.886;8.074;2023-04-16T13:26:08;19.67;;;14.03;;
10894;SDS011;5500;49.886;8.074;2023-04-16T13:28:39;16.83;;;13.67;;
10894;SDS011;5500;49.886;8.074;2023-04-16T13:31:07;17.03;;;13.23;;
10894;SDS011;5500;49.886;8.074;2023-04-16T13:33:34;16.60;;;13.43;;
10894;SDS011;5500;49.886;8.074;2023-04-16T13:36:02;17.33;;;13.63;;
10894;SDS011;5500;49.886;8.074;2023-04-16T13:38:30;19.73;;;14.53;;
10894;SDS011;5500;49.886;8.074;2023-04-16T13:40:57;15.47;;;13.43;;
10894;SDS011;5500;49.886;8.074;2023-04-16T13:43:25;15.57;;;13.87;;
10894;SDS011;5500;49.886;8.074;2023-04-16T13:45:54;18.63;;;14.20;;
10894;SDS011;5500;49.886;8.074;2023-04-16T13:48:22;17.13;;;13.63;;
10894;SDS011;5500;49.886;8.074;2023-04-16T13:50:50;17.13;;;13.90;;
10894;SDS011;5500;49.886;8.074;2023-04-16T13:53:17;17.40;;;13.30;;
10894;SDS011;5500;49.886;8.074;2023-04-16T13:55:45;15.23;;;13.37;;
10894;SDS011;5500;49.886;8.074;2023-04-16T13:58:14;16.10;;;12.57;;
10894;SDS011;5500;49.886;8.074;2023-04-16T14:00:42;14.37;;;12.87;;
10894;SDS011;5500;49.886;8.074;2023-04-16T14:03:11;16.50;;;13.67;;
10894;SDS011;5500;49.886;8.074;2023-04-16T14:05:39;15.23;;;13.20;;
10894;SDS011;5500;49.886;8.074;2023-04-16T14:08:08;19.77;;;13.40;;
10894;SDS011;5500;49.886;8.074;2023-04-16T14:10:36;15.90;;;12.40;;
10894;SDS011;5500;49.886;8.074;2023-04-16T14:13:04;14.77;;;12.60;;
10894;SDS011;5500;49.886;8.074;2023-04-16T14:15:31;14.63;;;12.20;;
10894;SDS011;5500;49.886;8.074;2023-04-16T14:17:59;15.90;;;12.60;;
10894;SDS011;5500;49.886;8.074;2023-04-16T14:20:30;15.10;;;12.87;;
10894;SDS011;5500;49.886;8.074;2023-04-16T14:22:58;14.47;;;11.90;;
10894;SDS011;5500;49.886;8.074;2023-04-16T14:25:25;13.17;;;11.77;;
10894;SDS011;5500;49.886;8.074;2023-04-16T14:27:53;14.70;;;12.70;;
10894;SDS011;5500;49.886;8.074;2023-04-16T14:30:21;14.47;;;11.67;;
10894;SDS011;5500;49.886;8.074;2023-04-16T14:32:48;11.97;;;10.77;;
10894;SDS011;5500;49.886;8.074;2023-04-16T14:35:16;15.13;;;11.07;;
10894;SDS011;5500;49.886;8.074;2023-04-16T14:37:46;13.47;;;11.63;;
10894;SDS011;5500;49.886;8.074;2023-04-16T14:40:13;12.83;;;10.77;;
10894;SDS011;5500;49.886;8.074;2023-04-16T14:42:41;14.00;;;11.17;;